sensor_id;sensor_type;location;lat;lon;timestamp;temperature;humidity
36924;DHT22;22841;50.252;18.688;2023-05-20T00:00:46;11.00;99.90
36924;DHT22;22841;50.252;18.688;2023-05-20T00:03:14;11.00;99.90
36924;DHT22;22841;50.252;18.688;2023-05-20T00:05:41;11.00;99.90
36924;DHT22;22841;50.252;18.688;2023-05-20T00:08:07;11.00;99.90
36924;DHT22;22841;50.252;18.688;2023-05-20T00:10:34;11.00;99.90
36924;DHT22;22841;50.252;18.688;2023-05-20T00:13:01;11.00;99.90
36924;DHT22;22841;50.252;18.688;2023-05-20T00:15:27;11.00;99.90
36924;DHT22;22841;50.252;18.688;2023-05-20T00:17:54;11.00;99.90
36924;DHT22;22841;50.252;18.688;2023-05-20T00:20:20;11.00;99.90
36924;DHT22;22841;50.252;18.688;2023-05-20T00:22:46;11.00;99.90
36924;DHT22;22841;50.252;18.688;2023-05-20T00:25:13;11.00;99.90
36924;DHT22;22841;50.252;18.688;2023-05-20T00:27:40;11.00;99.90
36924;DHT22;22841;50.252;18.688;2023-05-20T00:30:07;10.90;99.90
36924;DHT22;22841;50.252;18.688;2023-05-20T00:32:33;10.90;99.90
36924;DHT22;22841;50.252;18.688;2023-05-20T00:35:00;10.90;99.90
36924;DHT22;22841;50.252;18.688;2023-05-20T00:37:26;10.90;99.90
36924;DHT22;22841;50.252;18.688;2023-05-20T00:39:52;10.90;99.90
36924;DHT22;22841;50.252;18.688;2023-05-20T00:42:23;10.90;99.90
36924;DHT22;22841;50.252;18.688;2023-05-20T00:44:50;10.90;99.90
36924;DHT22;22841;50.252;18.688;2023-05-20T00:47:26;10.90;99.90
36924;DHT22;22841;50.252;18.688;2023-05-20T00:49:53;10.90;99.90
36924;DHT22;22841;50.252;18.688;2023-05-20T00:52:19;10.90;99.90
36924;DHT22;22841;50.252;18.688;2023-05-20T00:54:45;10.90;99.90
36924;DHT22;22841;50.252;18.688;2023-05-20T00:57:12;10.90;99.90
36924;DHT22;22841;50.252;18.688;2023-05-20T00:59:38;10.90;99.90
36924;DHT22;22841;50.252;18.688;2023-05-20T01:02:05;10.90;99.90
36924;DHT22;22841;50.252;18.688;2023-05-20T01:04:31;10.90;99.90
36924;DHT22;22841;50.252;18.688;2023-05-20T01:07:00;10.90;99.90
36924;DHT22;22841;50.252;18.688;2023-05-20T01:09:27;10.90;99.90
36924;DHT22;22841;50.252;18.688;2023-05-20T01:12:02;10.90;99.90
36924;DHT22;22841;50.252;18.688;2023-05-20T01:14:35;10.90;99.90
36924;DHT22;22841;50.252;18.688;2023-05-20T01:17:02;10.90;99.90
36924;DHT22;22841;50.252;18.688;2023-05-20T01:19:40;10.90;99.90
36924;DHT22;22841;50.252;18.688;2023-05-20T01:22:10;10.90;99.90
36924;DHT22;22841;50.252;18.688;2023-05-20T01:24:43;10.90;99.90
36924;DHT22;22841;50.252;18.688;2023-05-20T01:27:10;10.90;99.90
36924;DHT22;22841;50.252;18.688;2023-05-20T01:29:39;10.90;99.90
36924;DHT22;22841;50.252;18.688;2023-05-20T01:32:10;10.90;99.90
36924;DHT22;22841;50.252;18.688;2023-05-20T01:34:37;10.80;99.90
36924;DHT22;22841;50.252;18.688;2023-05-20T01:37:04;10.90;99.90
36924;DHT22;22841;50.252;18.688;2023-05-20T01:39:35;10.90;99.90
36924;DHT22;22841;50.252;18.688;2023-05-20T01:42:07;10.80;99.90
36924;DHT22;22841;50.252;18.688;2023-05-20T01:44:34;10.90;99.90
36924;DHT22;22841;50.252;18.688;2023-05-20T01:47:00;10.90;99.90
36924;DHT22;22841;50.252;18.688;2023-05-20T01:49:26;10.90;99.90
36924;DHT22;22841;50.252;18.688;2023-05-20T01:51:53;10.80;99.90
36924;DHT22;22841;50.252;18.688;2023-05-20T01:54:19;10.90;99.90
36924;DHT22;22841;50.252;18.688;2023-05-20T01:56:45;10.80;99.90
36924;DHT22;22841;50.252;18.688;2023-05-20T01:59:12;10.80;99.90
36924;DHT22;22841;50.252;18.688;2023-05-20T02:01:38;10.80;99.90
36924;DHT22;22841;50.252;18.688;2023-05-20T02:04:04;10.80;99.90
36924;DHT22;22841;50.252;18.688;2023-05-20T02:06:30;10.80;99.90
36924;DHT22;22841;50.252;18.688;2023-05-20T02:08:56;10.80;99.90
36924;DHT22;22841;50.252;18.688;2023-05-20T02:11:22;10.80;99.90
36924;DHT22;22841;50.252;18.688;2023-05-20T02:13:49;10.90;99.90
36924;DHT22;22841;50.252;18.688;2023-05-20T02:16:16;10.80;99.90
36924;DHT22;22841;50.252;18.688;2023-05-20T02:18:42;10.90;99.90
36924;DHT22;22841;50.252;18.688;2023-05-20T02:21:09;10.90;99.90
36924;DHT22;22841;50.252;18.688;2023-05-20T02:23:35;10.90;99.90
36924;DHT22;22841;50.252;18.688;2023-05-20T02:26:01;10.90;99.90
36924;DHT22;22841;50.252;18.688;2023-05-20T02:28:27;10.90;99.90
36924;DHT22;22841;50.252;18.688;2023-05-20T02:30:53;10.80;99.90
36924;DHT22;22841;50.252;18.688;2023-05-20T02:33:19;10.80;99.90
36924;DHT22;22841;50.252;18.688;2023-05-20T02:35:46;10.90;99.90
36924;DHT22;22841;50.252;18.688;2023-05-20T02:38:12;10.80;99.90
36924;DHT22;22841;50.252;18.688;2023-05-20T02:40:38;10.90;99.90
36924;DHT22;22841;50.252;18.688;2023-05-20T02:43:04;10.90;99.90
36924;DHT22;22841;50.252;18.688;2023-05-20T02:45:30;10.90;99.90
36924;DHT22;22841;50.252;18.688;2023-05-20T02:47:56;10.90;99.90
36924;DHT22;22841;50.252;18.688;2023-05-20T02:50:23;10.90;99.90
36924;DHT22;22841;50.252;18.688;2023-05-20T02:52:49;10.90;99.90
36924;DHT22;22841;50.252;18.688;2023-05-20T02:55:15;10.80;99.90
36924;DHT22;22841;50.252;18.688;2023-05-20T02:57:41;10.90;99.90
36924;DHT22;22841;50.252;18.688;2023-05-20T03:00:08;10.90;99.90
36924;DHT22;22841;50.252;18.688;2023-05-20T03:02:38;10.90;99.90
36924;DHT22;22841;50.252;18.688;2023-05-20T03:05:04;10.90;99.90
36924;DHT22;22841;50.252;18.688;2023-05-20T03:07:33;10.80;99.90
36924;DHT22;22841;50.252;18.688;2023-05-20T03:09:59;10.80;99.90
36924;DHT22;22841;50.252;18.688;2023-05-20T03:12:28;10.90;99.90
36924;DHT22;22841;50.252;18.688;2023-05-20T03:14:54;10.90;99.90
36924;DHT22;22841;50.252;18.688;2023-05-20T03:17:20;10.80;99.90
36924;DHT22;22841;50.252;18.688;2023-05-20T03:19:47;10.90;99.90
36924;DHT22;22841;50.252;18.688;2023-05-20T03:22:13;10.80;99.90
36924;DHT22;22841;50.252;18.688;2023-05-20T03:24:39;10.80;99.90
36924;DHT22;22841;50.252;18.688;2023-05-20T03:27:05;10.80;99.90
36924;DHT22;22841;50.252;18.688;2023-05-20T03:29:31;10.80;99.90
36924;DHT22;22841;50.252;18.688;2023-05-20T03:31:58;10.80;99.90
36924;DHT22;22841;50.252;18.688;2023-05-20T03:34:24;10.90;99.90
36924;DHT22;22841;50.252;18.688;2023-05-20T03:36:53;10.80;99.90
36924;DHT22;22841;50.252;18.688;2023-05-20T03:39:19;10.80;99.90
36924;DHT22;22841;50.252;18.688;2023-05-20T03:41:45;10.90;99.90
36924;DHT22;22841;50.252;18.688;2023-05-20T03:44:11;10.90;99.90
36924;DHT22;22841;50.252;18.688;2023-05-20T03:46:37;10.90;99.90
36924;DHT22;22841;50.252;18.688;2023-05-20T03:49:03;10.80;99.90
36924;DHT22;22841;50.252;18.688;2023-05-20T03:51:30;10.80;99.90
36924;DHT22;22841;50.252;18.688;2023-05-20T03:53:57;10.80;99.90
36924;DHT22;22841;50.252;18.688;2023-05-20T03:56:23;10.80;99.90
36924;DHT22;22841;50.252;18.688;2023-05-20T03:58:49;10.80;99.90
36924;DHT22;22841;50.252;18.688;2023-05-20T04:01:16;10.80;99.90
36924;DHT22;22841;50.252;18.688;2023-05-20T04:03:42;10.80;99.90
36924;DHT22;22841;50.252;18.688;2023-05-20T04:06:08;10.80;99.90
36924;DHT22;22841;50.252;18.688;2023-05-20T04:08:34;10.80;99.90
36924;DHT22;22841;50.252;18.688;2023-05-20T04:11:02;10.80;99.90
36924;DHT22;22841;50.252;18.688;2023-05-20T04:13:28;10.80;99.90
36924;DHT22;22841;50.252;18.688;2023-05-20T04:15:54;10.80;99.90
36924;DHT22;22841;50.252;18.688;2023-05-20T04:18:20;10.80;99.90
36924;DHT22;22841;50.252;18.688;2023-05-20T04:20:46;10.80;99.90
36924;DHT22;22841;50.252;18.688;2023-05-20T04:23:12;10.80;99.90
36924;DHT22;22841;50.252;18.688;2023-05-20T04:25:38;10.80;99.90
36924;DHT22;22841;50.252;18.688;2023-05-20T04:28:06;10.80;99.90
36924;DHT22;22841;50.252;18.688;2023-05-20T04:30:35;10.80;99.90
36924;DHT22;22841;50.252;18.688;2023-05-20T04:33:01;10.80;99.90
36924;DHT22;22841;50.252;18.688;2023-05-20T04:35:28;10.90;99.90
36924;DHT22;22841;50.252;18.688;2023-05-20T04:37:55;10.90;99.90
36924;DHT22;22841;50.252;18.688;2023-05-20T04:40:21;10.90;99.90
36924;DHT22;22841;50.252;18.688;2023-05-20T04:42:47;10.90;99.90
36924;DHT22;22841;50.252;18.688;2023-05-20T04:45:13;10.90;99.90
36924;DHT22;22841;50.252;18.688;2023-05-20T04:47:39;11.00;99.90
36924;DHT22;22841;50.252;18.688;2023-05-20T04:50:07;11.00;99.90
36924;DHT22;22841;50.252;18.688;2023-05-20T04:52:37;11.00;99.90
36924;DHT22;22841;50.252;18.688;2023-05-20T04:55:08;11.00;99.90
36924;DHT22;22841;50.252;18.688;2023-05-20T04:57:35;11.00;99.90
36924;DHT22;22841;50.252;18.688;2023-05-20T05:00:05;11.10;99.90
36924;DHT22;22841;50.252;18.688;2023-05-20T05:02:33;11.10;99.90
36924;DHT22;22841;50.252;18.688;2023-05-20T05:04:59;11.10;99.90
36924;DHT22;22841;50.252;18.688;2023-05-20T05:07:26;11.10;99.90
36924;DHT22;22841;50.252;18.688;2023-05-20T05:09:52;11.20;99.90
36924;DHT22;22841;50.252;18.688;2023-05-20T05:12:18;11.20;99.90
36924;DHT22;22841;50.252;18.688;2023-05-20T05:14:44;11.20;99.90
36924;DHT22;22841;50.252;18.688;2023-05-20T05:17:10;11.20;99.90
36924;DHT22;22841;50.252;18.688;2023-05-20T05:19:36;11.30;99.90
36924;DHT22;22841;50.252;18.688;2023-05-20T05:22:02;11.30;99.90
36924;DHT22;22841;50.252;18.688;2023-05-20T05:24:28;11.30;99.90
36924;DHT22;22841;50.252;18.688;2023-05-20T05:26:55;11.30;99.90
36924;DHT22;22841;50.252;18.688;2023-05-20T05:29:21;11.40;99.90
36924;DHT22;22841;50.252;18.688;2023-05-20T05:31:47;11.50;99.90
36924;DHT22;22841;50.252;18.688;2023-05-20T05:34:13;11.50;99.90
36924;DHT22;22841;50.252;18.688;2023-05-20T05:36:40;11.50;99.90
36924;DHT22;22841;50.252;18.688;2023-05-20T05:39:06;11.60;99.90
36924;DHT22;22841;50.252;18.688;2023-05-20T05:41:32;11.60;99.90
36924;DHT22;22841;50.252;18.688;2023-05-20T05:43:58;11.60;99.90
36924;DHT22;22841;50.252;18.688;2023-05-20T05:46:24;11.60;99.90
36924;DHT22;22841;50.252;18.688;2023-05-20T05:48:51;11.70;99.90
36924;DHT22;22841;50.252;18.688;2023-05-20T05:51:17;11.70;99.90
36924;DHT22;22841;50.252;18.688;2023-05-20T05:53:43;11.70;99.90
36924;DHT22;22841;50.252;18.688;2023-05-20T05:56:09;11.70;99.90
36924;DHT22;22841;50.252;18.688;2023-05-20T05:58:36;11.80;99.90
36924;DHT22;22841;50.252;18.688;2023-05-20T06:01:02;11.80;99.90
36924;DHT22;22841;50.252;18.688;2023-05-20T06:03:28;11.80;99.90
36924;DHT22;22841;50.252;18.688;2023-05-20T06:05:55;11.90;99.90
36924;DHT22;22841;50.252;18.688;2023-05-20T06:08:21;11.90;99.90
36924;DHT22;22841;50.252;18.688;2023-05-20T06:10:48;12.00;99.90
36924;DHT22;22841;50.252;18.688;2023-05-20T06:13:15;12.00;99.90
36924;DHT22;22841;50.252;18.688;2023-05-20T06:15:41;12.00;99.90
36924;DHT22;22841;50.252;18.688;2023-05-20T06:18:07;12.10;99.90
36924;DHT22;22841;50.252;18.688;2023-05-20T06:20:33;12.10;99.90
36924;DHT22;22841;50.252;18.688;2023-05-20T06:22:59;12.10;99.90
36924;DHT22;22841;50.252;18.688;2023-05-20T06:25:26;12.20;99.90
36924;DHT22;22841;50.252;18.688;2023-05-20T06:27:52;12.20;99.90
36924;DHT22;22841;50.252;18.688;2023-05-20T06:30:18;12.20;99.90
36924;DHT22;22841;50.252;18.688;2023-05-20T06:32:45;12.20;99.90
36924;DHT22;22841;50.252;18.688;2023-05-20T06:35:11;12.30;99.90
36924;DHT22;22841;50.252;18.688;2023-05-20T06:37:37;12.40;99.90
36924;DHT22;22841;50.252;18.688;2023-05-20T06:40:03;12.40;99.90
36924;DHT22;22841;50.252;18.688;2023-05-20T06:42:30;12.40;99.90
36924;DHT22;22841;50.252;18.688;2023-05-20T06:44:56;12.40;99.90
36924;DHT22;22841;50.252;18.688;2023-05-20T06:47:22;12.40;99.90
36924;DHT22;22841;50.252;18.688;2023-05-20T06:49:48;12.50;99.90
36924;DHT22;22841;50.252;18.688;2023-05-20T06:52:14;12.40;99.90
36924;DHT22;22841;50.252;18.688;2023-05-20T06:54:40;12.50;99.90
36924;DHT22;22841;50.252;18.688;2023-05-20T06:57:09;12.50;99.90
36924;DHT22;22841;50.252;18.688;2023-05-20T06:59:36;12.50;99.90
36924;DHT22;22841;50.252;18.688;2023-05-20T07:02:02;12.50;99.90
36924;DHT22;22841;50.252;18.688;2023-05-20T07:04:29;12.50;99.90
36924;DHT22;22841;50.252;18.688;2023-05-20T07:06:55;12.50;99.90
36924;DHT22;22841;50.252;18.688;2023-05-20T07:09:21;12.50;99.90
36924;DHT22;22841;50.252;18.688;2023-05-20T07:11:47;12.60;99.90
36924;DHT22;22841;50.252;18.688;2023-05-20T07:14:13;12.60;99.90
36924;DHT22;22841;50.252;18.688;2023-05-20T07:16:39;12.60;99.90
36924;DHT22;22841;50.252;18.688;2023-05-20T07:19:05;12.70;99.90
36924;DHT22;22841;50.252;18.688;2023-05-20T07:21:31;12.80;99.90
36924;DHT22;22841;50.252;18.688;2023-05-20T07:23:57;12.90;99.90
36924;DHT22;22841;50.252;18.688;2023-05-20T07:26:23;13.00;99.90
36924;DHT22;22841;50.252;18.688;2023-05-20T07:28:50;13.00;99.90
36924;DHT22;22841;50.252;18.688;2023-05-20T07:31:16;13.10;99.90
36924;DHT22;22841;50.252;18.688;2023-05-20T07:33:50;13.20;99.90
36924;DHT22;22841;50.252;18.688;2023-05-20T07:36:16;13.20;99.90
36924;DHT22;22841;50.252;18.688;2023-05-20T07:38:42;13.30;99.90
36924;DHT22;22841;50.252;18.688;2023-05-20T07:41:08;13.30;99.90
36924;DHT22;22841;50.252;18.688;2023-05-20T07:43:34;13.40;99.90
36924;DHT22;22841;50.252;18.688;2023-05-20T07:46:00;13.50;99.90
36924;DHT22;22841;50.252;18.688;2023-05-20T07:48:26;13.50;99.90
36924;DHT22;22841;50.252;18.688;2023-05-20T07:50:53;13.60;99.90
36924;DHT22;22841;50.252;18.688;2023-05-20T07:53:21;13.60;99.90
36924;DHT22;22841;50.252;18.688;2023-05-20T07:55:48;13.60;99.90
36924;DHT22;22841;50.252;18.688;2023-05-20T07:58:14;13.60;99.90
36924;DHT22;22841;50.252;18.688;2023-05-20T08:00:40;13.70;99.90
36924;DHT22;22841;50.252;18.688;2023-05-20T08:03:06;13.70;99.90
36924;DHT22;22841;50.252;18.688;2023-05-20T08:05:35;13.80;99.90
36924;DHT22;22841;50.252;18.688;2023-05-20T08:08:01;13.90;99.90
36924;DHT22;22841;50.252;18.688;2023-05-20T08:10:27;13.90;99.90
36924;DHT22;22841;50.252;18.688;2023-05-20T08:12:53;14.00;99.90
36924;DHT22;22841;50.252;18.688;2023-05-20T08:15:19;14.10;99.90
36924;DHT22;22841;50.252;18.688;2023-05-20T08:17:45;14.20;99.90
36924;DHT22;22841;50.252;18.688;2023-05-20T08:20:11;14.30;99.90
36924;DHT22;22841;50.252;18.688;2023-05-20T08:22:38;14.30;99.90
36924;DHT22;22841;50.252;18.688;2023-05-20T08:25:07;14.30;99.90
36924;DHT22;22841;50.252;18.688;2023-05-20T08:27:34;14.40;99.90
36924;DHT22;22841;50.252;18.688;2023-05-20T08:30:01;14.50;99.90
36924;DHT22;22841;50.252;18.688;2023-05-20T08:32:27;14.50;99.90
36924;DHT22;22841;50.252;18.688;2023-05-20T08:34:53;14.60;99.90
36924;DHT22;22841;50.252;18.688;2023-05-20T08:37:19;14.70;99.90
36924;DHT22;22841;50.252;18.688;2023-05-20T08:39:45;14.70;99.90
36924;DHT22;22841;50.252;18.688;2023-05-20T08:42:13;14.80;99.90
36924;DHT22;22841;50.252;18.688;2023-05-20T08:44:41;14.90;99.90
36924;DHT22;22841;50.252;18.688;2023-05-20T08:47:08;15.00;99.90
36924;DHT22;22841;50.252;18.688;2023-05-20T08:49:35;15.10;99.90
36924;DHT22;22841;50.252;18.688;2023-05-20T08:52:02;15.30;99.90
36924;DHT22;22841;50.252;18.688;2023-05-20T08:54:42;15.30;99.90
36924;DHT22;22841;50.252;18.688;2023-05-20T08:57:08;15.40;99.90
36924;DHT22;22841;50.252;18.688;2023-05-20T08:59:35;15.50;99.90
36924;DHT22;22841;50.252;18.688;2023-05-20T09:02:02;15.50;99.90
36924;DHT22;22841;50.252;18.688;2023-05-20T09:04:28;15.80;99.90
36924;DHT22;22841;50.252;18.688;2023-05-20T09:06:54;15.90;99.90
36924;DHT22;22841;50.252;18.688;2023-05-20T09:09:20;15.90;99.90
36924;DHT22;22841;50.252;18.688;2023-05-20T09:11:47;15.90;99.90
36924;DHT22;22841;50.252;18.688;2023-05-20T09:14:13;15.90;99.90
36924;DHT22;22841;50.252;18.688;2023-05-20T09:16:39;16.00;99.90
36924;DHT22;22841;50.252;18.688;2023-05-20T09:19:06;16.20;99.90
36924;DHT22;22841;50.252;18.688;2023-05-20T09:21:33;16.50;99.90
36924;DHT22;22841;50.252;18.688;2023-05-20T09:24:02;16.70;99.90
36924;DHT22;22841;50.252;18.688;2023-05-20T09:26:29;16.70;99.90
36924;DHT22;22841;50.252;18.688;2023-05-20T09:28:58;16.90;99.90
36924;DHT22;22841;50.252;18.688;2023-05-20T09:31:34;17.10;99.90
36924;DHT22;22841;50.252;18.688;2023-05-20T09:34:00;17.10;99.90
36924;DHT22;22841;50.252;18.688;2023-05-20T09:36:28;17.10;99.90
36924;DHT22;22841;50.252;18.688;2023-05-20T09:38:59;17.00;99.90
36924;DHT22;22841;50.252;18.688;2023-05-20T09:41:36;17.00;99.90
36924;DHT22;22841;50.252;18.688;2023-05-20T09:44:04;17.00;99.90
36924;DHT22;22841;50.252;18.688;2023-05-20T09:46:32;17.00;99.90
36924;DHT22;22841;50.252;18.688;2023-05-20T09:48:59;17.10;99.90
36924;DHT22;22841;50.252;18.688;2023-05-20T09:51:27;17.20;99.90
36924;DHT22;22841;50.252;18.688;2023-05-20T09:53:54;17.30;99.90
36924;DHT22;22841;50.252;18.688;2023-05-20T09:56:23;17.40;99.90
36924;DHT22;22841;50.252;18.688;2023-05-20T09:58:50;17.30;99.90
36924;DHT22;22841;50.252;18.688;2023-05-20T10:01:17;17.10;99.90
36924;DHT22;22841;50.252;18.688;2023-05-20T10:03:44;17.20;99.90
36924;DHT22;22841;50.252;18.688;2023-05-20T10:09:36;17.30;99.90
36924;DHT22;22841;50.252;18.688;2023-05-20T10:20:47;17.80;99.90
36924;DHT22;22841;50.252;18.688;2023-05-20T10:23:26;17.90;99.90
36924;DHT22;22841;50.252;18.688;2023-05-20T10:25:53;17.90;99.90
36924;DHT22;22841;50.252;18.688;2023-05-20T10:28:37;17.90;99.90
36924;DHT22;22841;50.252;18.688;2023-05-20T10:31:21;18.10;99.90
36924;DHT22;22841;50.252;18.688;2023-05-20T10:33:50;18.00;99.90
36924;DHT22;22841;50.252;18.688;2023-05-20T10:36:27;18.20;99.90
36924;DHT22;22841;50.252;18.688;2023-05-20T10:38:58;18.20;99.90
36924;DHT22;22841;50.252;18.688;2023-05-20T10:41:29;18.10;99.90
36924;DHT22;22841;50.252;18.688;2023-05-20T10:44:03;18.20;99.90
36924;DHT22;22841;50.252;18.688;2023-05-20T10:46:30;18.30;99.90
36924;DHT22;22841;50.252;18.688;2023-05-20T10:48:57;18.30;99.90
36924;DHT22;22841;50.252;18.688;2023-05-20T10:51:23;18.30;99.90
36924;DHT22;22841;50.252;18.688;2023-05-20T10:53:53;18.20;99.90
36924;DHT22;22841;50.252;18.688;2023-05-20T10:56:22;18.20;99.90
36924;DHT22;22841;50.252;18.688;2023-05-20T10:58:52;18.10;99.90
36924;DHT22;22841;50.252;18.688;2023-05-20T11:01:24;18.10;99.90
36924;DHT22;22841;50.252;18.688;2023-05-20T11:03:53;18.40;99.90
36924;DHT22;22841;50.252;18.688;2023-05-20T11:06:19;18.50;99.90
36924;DHT22;22841;50.252;18.688;2023-05-20T11:08:45;18.50;99.90
36924;DHT22;22841;50.252;18.688;2023-05-20T11:11:12;18.50;99.90
36924;DHT22;22841;50.252;18.688;2023-05-20T11:13:39;18.60;99.90
36924;DHT22;22841;50.252;18.688;2023-05-20T11:16:05;18.60;99.90
36924;DHT22;22841;50.252;18.688;2023-05-20T11:18:32;18.70;99.90
36924;DHT22;22841;50.252;18.688;2023-05-20T11:20:59;18.60;99.90
36924;DHT22;22841;50.252;18.688;2023-05-20T11:23:27;18.60;99.90
36924;DHT22;22841;50.252;18.688;2023-05-20T11:25:55;18.60;99.90
36924;DHT22;22841;50.252;18.688;2023-05-20T11:28:22;18.60;99.90
36924;DHT22;22841;50.252;18.688;2023-05-20T11:30:50;18.60;99.90
36924;DHT22;22841;50.252;18.688;2023-05-20T11:33:17;18.60;99.90
36924;DHT22;22841;50.252;18.688;2023-05-20T11:35:48;18.60;99.90
36924;DHT22;22841;50.252;18.688;2023-05-20T11:38:15;18.70;99.90
36924;DHT22;22841;50.252;18.688;2023-05-20T11:40:43;18.80;99.90
36924;DHT22;22841;50.252;18.688;2023-05-20T11:43:11;18.80;99.90
36924;DHT22;22841;50.252;18.688;2023-05-20T11:45:46;19.00;99.90
36924;DHT22;22841;50.252;18.688;2023-05-20T11:48:12;19.10;99.90
36924;DHT22;22841;50.252;18.688;2023-05-20T11:50:42;19.20;99.90
36924;DHT22;22841;50.252;18.688;2023-05-20T11:53:10;19.10;99.90
36924;DHT22;22841;50.252;18.688;2023-05-20T11:55:50;19.30;99.90
36924;DHT22;22841;50.252;18.688;2023-05-20T11:58:18;19.60;99.90
36924;DHT22;22841;50.252;18.688;2023-05-20T12:00:44;19.80;99.90
36924;DHT22;22841;50.252;18.688;2023-05-20T12:03:11;19.90;99.90
36924;DHT22;22841;50.252;18.688;2023-05-20T12:05:38;19.90;99.90
36924;DHT22;22841;50.252;18.688;2023-05-20T12:08:04;20.00;99.90
36924;DHT22;22841;50.252;18.688;2023-05-20T12:10:31;19.90;99.90
36924;DHT22;22841;50.252;18.688;2023-05-20T12:12:58;19.80;99.90
36924;DHT22;22841;50.252;18.688;2023-05-20T12:15:24;19.90;99.90
36924;DHT22;22841;50.252;18.688;2023-05-20T12:17:53;19.90;99.90
36924;DHT22;22841;50.252;18.688;2023-05-20T12:20:23;20.00;99.90
36924;DHT22;22841;50.252;18.688;2023-05-20T12:22:49;20.00;99.90
36924;DHT22;22841;50.252;18.688;2023-05-20T12:25:17;20.10;99.90
36924;DHT22;22841;50.252;18.688;2023-05-20T12:27:45;20.40;99.90
36924;DHT22;22841;50.252;18.688;2023-05-20T12:30:19;20.70;99.90
36924;DHT22;22841;50.252;18.688;2023-05-20T12:32:46;20.90;99.90
36924;DHT22;22841;50.252;18.688;2023-05-20T12:35:13;21.20;99.90
36924;DHT22;22841;50.252;18.688;2023-05-20T12:37:40;21.70;99.90
36924;DHT22;22841;50.252;18.688;2023-05-20T12:40:07;21.90;99.90
36924;DHT22;22841;50.252;18.688;2023-05-20T12:42:34;22.20;99.90
36924;DHT22;22841;50.252;18.688;2023-05-20T12:45:01;22.50;99.90
36924;DHT22;22841;50.252;18.688;2023-05-20T12:47:27;22.70;99.90
36924;DHT22;22841;50.252;18.688;2023-05-20T12:49:53;23.10;99.90
36924;DHT22;22841;50.252;18.688;2023-05-20T12:52:19;23.40;99.90
36924;DHT22;22841;50.252;18.688;2023-05-20T12:54:45;23.80;99.90
36924;DHT22;22841;50.252;18.688;2023-05-20T12:57:11;23.80;99.90
36924;DHT22;22841;50.252;18.688;2023-05-20T12:59:37;23.60;99.90
36924;DHT22;22841;50.252;18.688;2023-05-20T13:02:04;23.50;99.90
36924;DHT22;22841;50.252;18.688;2023-05-20T13:04:30;23.30;99.90
36924;DHT22;22841;50.252;18.688;2023-05-20T13:06:57;22.90;99.90
36924;DHT22;22841;50.252;18.688;2023-05-20T13:09:23;22.40;99.90
36924;DHT22;22841;50.252;18.688;2023-05-20T13:11:49;22.00;99.90
36924;DHT22;22841;50.252;18.688;2023-05-20T13:14:15;21.60;99.90
36924;DHT22;22841;50.252;18.688;2023-05-20T13:16:41;21.40;99.90
36924;DHT22;22841;50.252;18.688;2023-05-20T13:19:07;21.30;99.90
36924;DHT22;22841;50.252;18.688;2023-05-20T13:21:34;21.10;99.90
36924;DHT22;22841;50.252;18.688;2023-05-20T13:24:00;21.00;99.90
36924;DHT22;22841;50.252;18.688;2023-05-20T13:26:26;20.90;99.90
36924;DHT22;22841;50.252;18.688;2023-05-20T13:28:53;20.70;99.90
36924;DHT22;22841;50.252;18.688;2023-05-20T13:31:19;20.80;99.90
36924;DHT22;22841;50.252;18.688;2023-05-20T13:33:45;20.70;99.90
36924;DHT22;22841;50.252;18.688;2023-05-20T13:36:12;20.70;99.90
36924;DHT22;22841;50.252;18.688;2023-05-20T13:38:38;20.70;99.90
36924;DHT22;22841;50.252;18.688;2023-05-20T13:41:04;20.60;99.90
36924;DHT22;22841;50.252;18.688;2023-05-20T13:43:30;20.50;99.90
36924;DHT22;22841;50.252;18.688;2023-05-20T13:45:58;20.60;99.90
36924;DHT22;22841;50.252;18.688;2023-05-20T13:48:24;20.60;99.90
36924;DHT22;22841;50.252;18.688;2023-05-20T13:50:50;20.60;99.90
36924;DHT22;22841;50.252;18.688;2023-05-20T13:53:16;20.60;99.90
36924;DHT22;22841;50.252;18.688;2023-05-20T13:55:42;20.70;99.90
36924;DHT22;22841;50.252;18.688;2023-05-20T13:58:08;20.70;99.90
36924;DHT22;22841;50.252;18.688;2023-05-20T14:00:35;20.70;99.90
36924;DHT22;22841;50.252;18.688;2023-05-20T14:03:01;20.70;99.90
36924;DHT22;22841;50.252;18.688;2023-05-20T14:05:32;20.70;99.90
36924;DHT22;22841;50.252;18.688;2023-05-20T14:07:59;20.70;99.90
36924;DHT22;22841;50.252;18.688;2023-05-20T14:10:25;20.70;99.90
36924;DHT22;22841;50.252;18.688;2023-05-20T14:12:52;20.70;99.90
36924;DHT22;22841;50.252;18.688;2023-05-20T14:15:18;20.70;99.90
36924;DHT22;22841;50.252;18.688;2023-05-20T14:17:45;20.70;99.90
36924;DHT22;22841;50.252;18.688;2023-05-20T14:20:11;20.70;99.90
36924;DHT22;22841;50.252;18.688;2023-05-20T14:22:37;20.70;99.90
36924;DHT22;22841;50.252;18.688;2023-05-20T14:25:03;20.70;99.90
36924;DHT22;22841;50.252;18.688;2023-05-20T14:27:30;20.80;99.90
36924;DHT22;22841;50.252;18.688;2023-05-20T14:29:56;20.80;99.90
36924;DHT22;22841;50.252;18.688;2023-05-20T14:32:22;20.80;99.90
36924;DHT22;22841;50.252;18.688;2023-05-20T14:34:48;20.90;99.90
36924;DHT22;22841;50.252;18.688;2023-05-20T14:37:14;20.80;99.90
36924;DHT22;22841;50.252;18.688;2023-05-20T14:39:40;20.90;99.90
36924;DHT22;22841;50.252;18.688;2023-05-20T14:42:06;20.90;99.90
36924;DHT22;22841;50.252;18.688;2023-05-20T14:44:32;20.90;99.90
36924;DHT22;22841;50.252;18.688;2023-05-20T14:46:58;20.90;99.90
36924;DHT22;22841;50.252;18.688;2023-05-20T14:49:25;20.80;99.90
36924;DHT22;22841;50.252;18.688;2023-05-20T14:51:51;20.90;99.90
36924;DHT22;22841;50.252;18.688;2023-05-20T14:54:17;20.80;99.90
36924;DHT22;22841;50.252;18.688;2023-05-20T14:56:49;20.80;99.90
36924;DHT22;22841;50.252;18.688;2023-05-20T14:59:16;20.80;99.90
36924;DHT22;22841;50.252;18.688;2023-05-20T15:01:42;20.80;99.90
36924;DHT22;22841;50.252;18.688;2023-05-20T15:04:08;20.90;99.90
36924;DHT22;22841;50.252;18.688;2023-05-20T15:06:35;20.80;99.90
36924;DHT22;22841;50.252;18.688;2023-05-20T15:09:02;20.80;99.90
36924;DHT22;22841;50.252;18.688;2023-05-20T15:11:28;20.80;99.90
36924;DHT22;22841;50.252;18.688;2023-05-20T15:13:54;20.80;99.90
36924;DHT22;22841;50.252;18.688;2023-05-20T15:16:20;20.90;99.90
36924;DHT22;22841;50.252;18.688;2023-05-20T15:18:52;20.90;99.90
36924;DHT22;22841;50.252;18.688;2023-05-20T15:21:18;20.90;99.90
36924;DHT22;22841;50.252;18.688;2023-05-20T15:23:44;20.90;99.90
36924;DHT22;22841;50.252;18.688;2023-05-20T15:26:10;20.90;99.90